sensor_id;sensor_type;location;lat;lon;timestamp;P1;durP1;ratioP1;P2;durP2;ratioP2
4317;SDS011;2172;53.576;9.934;2023-04-06T00:01:41;10.97;;;7.43;;
4317;SDS011;2172;53.576;9.934;2023-04-06T00:04:10;8.50;;;6.33;;
4317;SDS011;2172;53.576;9.934;2023-04-06T00:06:37;10.80;;;8.33;;
4317;SDS011;2172;53.576;9.934;2023-04-06T00:09:05;12.23;;;8.10;;
4317;SDS011;2172;53.576;9.934;2023-04-06T00:11:33;11.53;;;8.00;;
4317;SDS011;2172;53.576;9.934;2023-04-06T00:14:00;9.43;;;6.33;;
4317;SDS011;2172;53.576;9.934;2023-04-06T00:16:28;10.17;;;7.63;;
4317;SDS011;2172;53.576;9.934;2023-04-06T00:18:56;12.47;;;7.50;;
4317;SDS011;2172;53.576;9.934;2023-04-06T00:21:25;9.23;;;7.13;;
4317;SDS011;2172;53.576;9.934;2023-04-06T00:23:52;14.93;;;7.67;;
4317;SDS011;2172;53.576;9.934;2023-04-06T00:26:20;9.53;;;7.30;;
4317;SDS011;2172;53.576;9.934;2023-04-06T00:28:49;12.57;;;7.97;;
4317;SDS011;2172;53.576;9.934;2023-04-06T00:31:17;8.97;;;7.03;;
4317;SDS011;2172;53.576;9.934;2023-04-06T00:33:45;10.80;;;7.27;;
4317;SDS011;2172;53.576;9.934;2023-04-06T00:36:14;14.73;;;8.90;;
4317;SDS011;2172;53.576;9.934;2023-04-06T00:38:43;11.20;;;7.60;;
4317;SDS011;2172;53.576;9.934;2023-04-06T00:41:10;10.10;;;7.70;;
4317;SDS011;2172;53.576;9.934;2023-04-06T00:43:39;10.17;;;7.00;;
4317;SDS011;2172;53.576;9.934;2023-04-06T00:46:07;9.83;;;7.50;;
4317;SDS011;2172;53.576;9.934;2023-04-06T00:48:35;12.37;;;8.40;;
4317;SDS011;2172;53.576;9.934;2023-04-06T00:51:02;11.57;;;8.23;;
4317;SDS011;2172;53.576;9.934;2023-04-06T00:53:30;9.40;;;6.90;;
4317;SDS011;2172;53.576;9.934;2023-04-06T00:56:01;10.30;;;6.60;;
4317;SDS011;2172;53.576;9.934;2023-04-06T00:58:38;10.33;;;6.87;;
4317;SDS011;2172;53.576;9.934;2023-04-06T01:01:07;10.63;;;7.10;;
4317;SDS011;2172;53.576;9.934;2023-04-06T01:03:35;9.27;;;6.80;;
4317;SDS011;2172;53.576;9.934;2023-04-06T01:06:03;11.90;;;7.80;;
4317;SDS011;2172;53.576;9.934;2023-04-06T01:08:36;8.17;;;7.27;;
4317;SDS011;2172;53.576;9.934;2023-04-06T01:11:16;9.37;;;6.97;;
4317;SDS011;2172;53.576;9.934;2023-04-06T01:13:46;8.73;;;7.00;;
4317;SDS011;2172;53.576;9.934;2023-04-06T01:16:24;11.20;;;6.50;;
4317;SDS011;2172;53.576;9.934;2023-04-06T01:19:07;8.67;;;7.33;;
4317;SDS011;2172;53.576;9.934;2023-04-06T01:21:36;11.73;;;8.10;;
4317;SDS011;2172;53.576;9.934;2023-04-06T01:24:22;12.37;;;7.00;;
4317;SDS011;2172;53.576;9.934;2023-04-06T01:27:02;8.90;;;6.77;;
4317;SDS011;2172;53.576;9.934;2023-04-06T01:29:53;11.03;;;7.80;;
4317;SDS011;2172;53.576;9.934;2023-04-06T01:32:35;10.40;;;7.27;;
4317;SDS011;2172;53.576;9.934;2023-04-06T01:35:03;10.80;;;8.00;;
4317;SDS011;2172;53.576;9.934;2023-04-06T01:37:34;14.87;;;8.50;;
4317;SDS011;2172;53.576;9.934;2023-04-06T01:40:07;9.93;;;7.20;;
4317;SDS011;2172;53.576;9.934;2023-04-06T01:42:42;9.50;;;7.37;;
4317;SDS011;2172;53.576;9.934;2023-04-06T01:45:14;9.00;;;7.27;;
4317;SDS011;2172;53.576;9.934;2023-04-06T01:47:42;9.67;;;7.63;;
4317;SDS011;2172;53.576;9.934;2023-04-06T01:50:11;11.17;;;7.57;;
4317;SDS011;2172;53.576;9.934;2023-04-06T01:52:43;13.20;;;7.77;;
4317;SDS011;2172;53.576;9.934;2023-04-06T01:55:13;17.60;;;8.97;;
4317;SDS011;2172;53.576;9.934;2023-04-06T01:58:13;8.57;;;7.07;;
4317;SDS011;2172;53.576;9.934;2023-04-06T02:00:41;11.33;;;7.00;;
4317;SDS011;2172;53.576;9.934;2023-04-06T02:03:09;10.57;;;7.80;;
4317;SDS011;2172;53.576;9.934;2023-04-06T02:05:37;10.13;;;8.50;;
4317;SDS011;2172;53.576;9.934;2023-04-06T02:08:21;13.70;;;8.40;;
4317;SDS011;2172;53.576;9.934;2023-04-06T02:10:50;14.40;;;8.60;;
4317;SDS011;2172;53.576;9.934;2023-04-06T02:13:27;8.83;;;6.97;;
4317;SDS011;2172;53.576;9.934;2023-04-06T02:15:55;9.40;;;8.40;;
4317;SDS011;2172;53.576;9.934;2023-04-06T02:18:23;11.50;;;8.97;;
4317;SDS011;2172;53.576;9.934;2023-04-06T02:20:50;11.40;;;7.20;;
4317;SDS011;2172;53.576;9.934;2023-04-06T02:23:18;12.37;;;7.73;;
4317;SDS011;2172;53.576;9.934;2023-04-06T02:25:46;11.23;;;7.93;;
4317;SDS011;2172;53.576;9.934;2023-04-06T02:28:14;12.30;;;8.53;;
4317;SDS011;2172;53.576;9.934;2023-04-06T02:30:42;8.80;;;7.00;;
4317;SDS011;2172;53.576;9.934;2023-04-06T02:33:10;10.70;;;7.90;;
4317;SDS011;2172;53.576;9.934;2023-04-06T02:35:44;9.03;;;8.00;;
4317;SDS011;2172;53.576;9.934;2023-04-06T02:38:11;11.07;;;8.50;;
4317;SDS011;2172;53.576;9.934;2023-04-06T02:40:39;11.93;;;8.40;;
4317;SDS011;2172;53.576;9.934;2023-04-06T02:43:34;11.37;;;8.43;;
4317;SDS011;2172;53.576;9.934;2023-04-06T02:46:13;12.20;;;8.67;;
4317;SDS011;2172;53.576;9.934;2023-04-06T02:48:41;11.17;;;7.87;;
4317;SDS011;2172;53.576;9.934;2023-04-06T02:51:08;12.37;;;9.10;;
4317;SDS011;2172;53.576;9.934;2023-04-06T02:53:36;13.23;;;8.53;;
4317;SDS011;2172;53.576;9.934;2023-04-06T02:56:05;13.30;;;8.73;;
4317;SDS011;2172;53.576;9.934;2023-04-06T02:58:45;9.97;;;7.70;;
4317;SDS011;2172;53.576;9.934;2023-04-06T03:01:12;10.77;;;7.60;;
4317;SDS011;2172;53.576;9.934;2023-04-06T03:03:41;12.67;;;8.67;;
4317;SDS011;2172;53.576;9.934;2023-04-06T03:06:16;9.73;;;7.77;;
4317;SDS011;2172;53.576;9.934;2023-04-06T03:08:44;9.57;;;7.77;;
4317;SDS011;2172;53.576;9.934;2023-04-06T03:11:12;10.13;;;7.17;;
4317;SDS011;2172;53.576;9.934;2023-04-06T03:13:41;11.20;;;8.40;;
4317;SDS011;2172;53.576;9.934;2023-04-06T03:16:11;15.60;;;9.27;;
4317;SDS011;2172;53.576;9.934;2023-04-06T03:18:40;12.10;;;8.27;;
4317;SDS011;2172;53.576;9.934;2023-04-06T03:21:12;13.73;;;8.40;;
4317;SDS011;2172;53.576;9.934;2023-04-06T03:23:47;11.20;;;8.20;;
4317;SDS011;2172;53.576;9.934;2023-04-06T03:26:16;11.60;;;7.90;;
4317;SDS011;2172;53.576;9.934;2023-04-06T03:28:44;13.00;;;9.47;;
4317;SDS011;2172;53.576;9.934;2023-04-06T03:31:13;10.37;;;9.27;;
4317;SDS011;2172;53.576;9.934;2023-04-06T03:33:53;11.20;;;8.97;;
4317;SDS011;2172;53.576;9.934;2023-04-06T03:36:25;11.43;;;9.30;;
4317;SDS011;2172;53.576;9.934;2023-04-06T03:38:55;9.63;;;8.63;;
4317;SDS011;2172;53.576;9.934;2023-04-06T03:41:23;11.70;;;9.13;;
4317;SDS011;2172;53.576;9.934;2023-04-06T03:44:10;13.97;;;10.27;;
4317;SDS011;2172;53.576;9.934;2023-04-06T03:46:39;12.20;;;9.67;;
4317;SDS011;2172;53.576;9.934;2023-04-06T03:49:07;11.53;;;9.17;;
4317;SDS011;2172;53.576;9.934;2023-04-06T03:51:34;10.83;;;9.40;;
4317;SDS011;2172;53.576;9.934;2023-04-06T03:54:02;13.30;;;9.63;;
4317;SDS011;2172;53.576;9.934;2023-04-06T03:56:30;14.60;;;10.17;;
4317;SDS011;2172;53.576;9.934;2023-04-06T03:58:57;10.90;;;8.40;;
4317;SDS011;2172;53.576;9.934;2023-04-06T04:01:25;12.97;;;10.37;;
4317;SDS011;2172;53.576;9.934;2023-04-06T04:03:55;13.67;;;9.90;;
4317;SDS011;2172;53.576;9.934;2023-04-06T04:06:23;17.43;;;10.00;;
4317;SDS011;2172;53.576;9.934;2023-04-06T04:08:51;12.77;;;10.70;;
4317;SDS011;2172;53.576;9.934;2023-04-06T04:11:18;14.70;;;11.60;;
4317;SDS011;2172;53.576;9.934;2023-04-06T04:13:51;14.70;;;10.80;;
4317;SDS011;2172;53.576;9.934;2023-04-06T04:16:19;12.97;;;10.33;;
4317;SDS011;2172;53.576;9.934;2023-04-06T04:18:47;15.20;;;11.90;;
4317;SDS011;2172;53.576;9.934;2023-04-06T04:21:16;10.60;;;9.40;;
4317;SDS011;2172;53.576;9.934;2023-04-06T04:23:44;14.23;;;10.83;;
4317;SDS011;2172;53.576;9.934;2023-04-06T04:26:11;14.77;;;10.93;;
4317;SDS011;2172;53.576;9.934;2023-04-06T04:28:42;17.23;;;11.97;;
4317;SDS011;2172;53.576;9.934;2023-04-06T04:31:10;12.50;;;10.93;;
4317;SDS011;2172;53.576;9.934;2023-04-06T04:33:39;14.53;;;10.97;;
4317;SDS011;2172;53.576;9.934;2023-04-06T04:36:12;14.10;;;11.10;;
4317;SDS011;2172;53.576;9.934;2023-04-06T04:38:43;14.53;;;11.43;;
4317;SDS011;2172;53.576;9.934;2023-04-06T04:41:12;14.87;;;11.80;;
4317;SDS011;2172;53.576;9.934;2023-04-06T04:43:42;12.47;;;10.73;;
4317;SDS011;2172;53.576;9.934;2023-04-06T04:46:11;18.77;;;13.50;;
4317;SDS011;2172;53.576;9.934;2023-04-06T04:48:41;20.00;;;11.80;;
4317;SDS011;2172;53.576;9.934;2023-04-06T04:51:09;16.37;;;12.60;;
4317;SDS011;2172;53.576;9.934;2023-04-06T04:53:57;15.30;;;11.97;;
4317;SDS011;2172;53.576;9.934;2023-04-06T04:56:29;15.57;;;13.03;;
4317;SDS011;2172;53.576;9.934;2023-04-06T04:59:06;13.80;;;11.87;;
4317;SDS011;2172;53.576;9.934;2023-04-06T05:01:37;20.53;;;12.53;;
4317;SDS011;2172;53.576;9.934;2023-04-06T05:04:05;19.27;;;12.10;;
4317;SDS011;2172;53.576;9.934;2023-04-06T05:06:33;16.80;;;12.60;;
4317;SDS011;2172;53.576;9.934;2023-04-06T05:09:02;14.93;;;12.50;;
4317;SDS011;2172;53.576;9.934;2023-04-06T05:11:30;16.90;;;12.40;;
4317;SDS011;2172;53.576;9.934;2023-04-06T05:13:59;15.73;;;12.50;;
4317;SDS011;2172;53.576;9.934;2023-04-06T05:16:28;15.80;;;13.03;;
4317;SDS011;2172;53.576;9.934;2023-04-06T05:18:55;15.47;;;11.80;;
4317;SDS011;2172;53.576;9.934;2023-04-06T05:21:27;15.17;;;10.80;;
4317;SDS011;2172;53.576;9.934;2023-04-06T05:24:00;15.13;;;11.97;;
4317;SDS011;2172;53.576;9.934;2023-04-06T05:26:32;18.70;;;12.30;;
4317;SDS011;2172;53.576;9.934;2023-04-06T05:29:06;16.33;;;12.67;;
4317;SDS011;2172;53.576;9.934;2023-04-06T05:31:36;16.00;;;12.30;;
4317;SDS011;2172;53.576;9.934;2023-04-06T05:34:03;17.30;;;13.30;;
4317;SDS011;2172;53.576;9.934;2023-04-06T05:36:35;15.30;;;12.47;;
4317;SDS011;2172;53.576;9.934;2023-04-06T05:39:10;14.20;;;12.57;;
4317;SDS011;2172;53.576;9.934;2023-04-06T05:41:49;15.27;;;12.93;;
4317;SDS011;2172;53.576;9.934;2023-04-06T05:44:29;15.83;;;11.97;;
4317;SDS011;2172;53.576;9.934;2023-04-06T05:47:06;18.70;;;11.73;;
4317;SDS011;2172;53.576;9.934;2023-04-06T05:49:35;15.73;;;12.07;;
4317;SDS011;2172;53.576;9.934;2023-04-06T05:52:07;16.47;;;12.13;;
4317;SDS011;2172;53.576;9.934;2023-04-06T05:54:36;15.33;;;11.70;;
4317;SDS011;2172;53.576;9.934;2023-04-06T05:57:05;17.90;;;13.10;;
4317;SDS011;2172;53.576;9.934;2023-04-06T05:59:33;14.67;;;12.30;;
4317;SDS011;2172;53.576;9.934;2023-04-06T06:02:01;16.40;;;12.10;;
4317;SDS011;2172;53.576;9.934;2023-04-06T06:04:32;13.80;;;11.63;;
4317;SDS011;2172;53.576;9.934;2023-04-06T06:07:00;14.47;;;12.63;;
4317;SDS011;2172;53.576;9.934;2023-04-06T06:09:37;16.50;;;13.00;;
4317;SDS011;2172;53.576;9.934;2023-04-06T06:12:18;14.13;;;12.00;;
4317;SDS011;2172;53.576;9.934;2023-04-06T06:14:47;16.07;;;11.33;;
4317;SDS011;2172;53.576;9.934;2023-04-06T06:17:14;14.53;;;11.43;;
4317;SDS011;2172;53.576;9.934;2023-04-06T06:19:45;16.10;;;11.70;;
4317;SDS011;2172;53.576;9.934;2023-04-06T06:22:13;16.00;;;11.43;;
4317;SDS011;2172;53.576;9.934;2023-04-06T06:24:44;18.93;;;12.37;;
4317;SDS011;2172;53.576;9.934;2023-04-06T06:27:12;15.80;;;12.17;;
4317;SDS011;2172;53.576;9.934;2023-04-06T06:29:41;15.07;;;11.83;;
4317;SDS011;2172;53.576;9.934;2023-04-06T06:32:10;13.30;;;11.33;;
4317;SDS011;2172;53.576;9.934;2023-04-06T06:34:38;13.13;;;11.73;;
4317;SDS011;2172;53.576;9.934;2023-04-06T06:37:08;18.20;;;12.67;;
4317;SDS011;2172;53.576;9.934;2023-04-06T06:39:36;13.93;;;12.43;;
4317;SDS011;2172;53.576;9.934;2023-04-06T06:42:05;18.73;;;13.40;;
4317;SDS011;2172;53.576;9.934;2023-04-06T06:45:07;17.33;;;12.80;;
4317;SDS011;2172;53.576;9.934;2023-04-06T06:47:35;15.03;;;11.80;;
4317;SDS011;2172;53.576;9.934;2023-04-06T06:50:03;13.50;;;11.03;;
4317;SDS011;2172;53.576;9.934;2023-04-06T06:52:32;15.23;;;11.77;;
4317;SDS011;2172;53.576;9.934;2023-04-06T06:55:00;15.03;;;11.57;;
4317;SDS011;2172;53.576;9.934;2023-04-06T06:57:27;16.87;;;12.17;;
4317;SDS011;2172;53.576;9.934;2023-04-06T06:59:56;20.13;;;10.17;;
4317;SDS011;2172;53.576;9.934;2023-04-06T07:02:27;14.83;;;10.13;;
4317;SDS011;2172;53.576;9.934;2023-04-06T07:04:55;13.80;;;9.47;;
4317;SDS011;2172;53.576;9.934;2023-04-06T07:07:23;16.23;;;10.50;;
4317;SDS011;2172;53.576;9.934;2023-04-06T07:09:51;19.83;;;10.47;;
4317;SDS011;2172;53.576;9.934;2023-04-06T07:12:18;14.37;;;10.37;;
4317;SDS011;2172;53.576;9.934;2023-04-06T07:14:46;14.40;;;9.67;;
4317;SDS011;2172;53.576;9.934;2023-04-06T07:17:14;20.33;;;10.93;;
4317;SDS011;2172;53.576;9.934;2023-04-06T07:19:43;16.10;;;11.13;;
4317;SDS011;2172;53.576;9.934;2023-04-06T07:22:11;19.63;;;11.20;;
4317;SDS011;2172;53.576;9.934;2023-04-06T07:24:39;13.70;;;9.50;;
4317;SDS011;2172;53.576;9.934;2023-04-06T07:27:06;14.63;;;10.00;;
4317;SDS011;2172;53.576;9.934;2023-04-06T07:29:34;17.33;;;10.40;;
4317;SDS011;2172;53.576;9.934;2023-04-06T07:32:02;21.23;;;10.50;;
4317;SDS011;2172;53.576;9.934;2023-04-06T07:34:31;14.37;;;10.10;;
4317;SDS011;2172;53.576;9.934;2023-04-06T07:37:01;11.63;;;9.90;;
4317;SDS011;2172;53.576;9.934;2023-04-06T07:39:29;13.57;;;10.13;;
4317;SDS011;2172;53.576;9.934;2023-04-06T07:41:57;14.53;;;9.63;;
4317;SDS011;2172;53.576;9.934;2023-04-06T07:44:24;14.93;;;8.93;;
4317;SDS011;2172;53.576;9.934;2023-04-06T07:46:52;10.30;;;7.53;;
4317;SDS011;2172;53.576;9.934;2023-04-06T07:49:21;12.30;;;8.20;;
4317;SDS011;2172;53.576;9.934;2023-04-06T07:51:49;12.80;;;8.77;;
4317;SDS011;2172;53.576;9.934;2023-04-06T07:54:19;15.30;;;9.30;;
4317;SDS011;2172;53.576;9.934;2023-04-06T07:56:46;13.27;;;8.63;;
4317;SDS011;2172;53.576;9.934;2023-04-06T07:59:14;11.57;;;8.67;;
4317;SDS011;2172;53.576;9.934;2023-04-06T08:01:42;8.47;;;7.53;;
4317;SDS011;2172;53.576;9.934;2023-04-06T08:04:09;8.50;;;7.63;;
4317;SDS011;2172;53.576;9.934;2023-04-06T08:06:37;9.80;;;7.40;;
4317;SDS011;2172;53.576;9.934;2023-04-06T08:09:06;14.17;;;8.73;;
4317;SDS011;2172;53.576;9.934;2023-04-06T08:11:35;16.20;;;9.10;;
4317;SDS011;2172;53.576;9.934;2023-04-06T08:14:03;12.73;;;8.03;;
4317;SDS011;2172;53.576;9.934;2023-04-06T08:16:30;9.50;;;7.57;;
4317;SDS011;2172;53.576;9.934;2023-04-06T08:18:58;8.80;;;7.90;;
4317;SDS011;2172;53.576;9.934;2023-04-06T08:21:25;10.67;;;8.73;;
4317;SDS011;2172;53.576;9.934;2023-04-06T08:23:53;10.80;;;8.50;;
4317;SDS011;2172;53.576;9.934;2023-04-06T08:26:21;9.47;;;7.87;;
4317;SDS011;2172;53.576;9.934;2023-04-06T08:28:50;9.60;;;7.60;;
4317;SDS011;2172;53.576;9.934;2023-04-06T08:31:18;9.80;;;8.37;;
4317;SDS011;2172;53.576;9.934;2023-04-06T08:33:45;10.20;;;8.90;;
4317;SDS011;2172;53.576;9.934;2023-04-06T08:36:13;9.80;;;8.60;;
4317;SDS011;2172;53.576;9.934;2023-04-06T08:38:43;11.33;;;8.87;;
4317;SDS011;2172;53.576;9.934;2023-04-06T08:41:12;11.80;;;9.70;;
4317;SDS011;2172;53.576;9.934;2023-04-06T08:43:42;12.03;;;8.83;;
4317;SDS011;2172;53.576;9.934;2023-04-06T08:46:12;12.17;;;8.67;;
4317;SDS011;2172;53.576;9.934;2023-04-06T08:48:40;13.00;;;10.00;;
4317;SDS011;2172;53.576;9.934;2023-04-06T08:51:08;9.73;;;8.73;;
4317;SDS011;2172;53.576;9.934;2023-04-06T08:53:36;12.80;;;9.43;;
4317;SDS011;2172;53.576;9.934;2023-04-06T08:56:04;9.67;;;7.90;;
4317;SDS011;2172;53.576;9.934;2023-04-06T08:58:34;8.60;;;7.73;;
4317;SDS011;2172;53.576;9.934;2023-04-06T09:01:06;11.60;;;8.80;;
4317;SDS011;2172;53.576;9.934;2023-04-06T09:03:38;7.67;;;6.83;;
4317;SDS011;2172;53.576;9.934;2023-04-06T09:06:06;10.73;;;7.80;;
4317;SDS011;2172;53.576;9.934;2023-04-06T09:08:35;10.00;;;7.57;;
4317;SDS011;2172;53.576;9.934;2023-04-06T09:11:06;11.97;;;8.10;;
4317;SDS011;2172;53.576;9.934;2023-04-06T09:13:43;11.10;;;7.60;;
4317;SDS011;2172;53.576;9.934;2023-04-06T09:16:12;9.33;;;7.23;;
4317;SDS011;2172;53.576;9.934;2023-04-06T09:18:41;8.47;;;6.90;;
4317;SDS011;2172;53.576;9.934;2023-04-06T09:21:09;9.70;;;7.17;;
4317;SDS011;2172;53.576;9.934;2023-04-06T09:23:37;9.37;;;7.07;;
4317;SDS011;2172;53.576;9.934;2023-04-06T09:26:06;10.40;;;6.97;;
4317;SDS011;2172;53.576;9.934;2023-04-06T09:28:42;9.80;;;7.37;;
4317;SDS011;2172;53.576;9.934;2023-04-06T09:31:10;10.00;;;7.03;;
4317;SDS011;2172;53.576;9.934;2023-04-06T09:33:38;14.63;;;7.30;;
4317;SDS011;2172;53.576;9.934;2023-04-06T09:36:09;8.30;;;6.53;;
4317;SDS011;2172;53.576;9.934;2023-04-06T09:38:37;7.30;;;6.60;;
4317;SDS011;2172;53.576;9.934;2023-04-06T09:41:20;10.23;;;7.37;;
4317;SDS011;2172;53.576;9.934;2023-04-06T09:43:49;7.30;;;6.60;;
4317;SDS011;2172;53.576;9.934;2023-04-06T09:46:17;10.37;;;7.00;;
4317;SDS011;2172;53.576;9.934;2023-04-06T09:48:46;9.83;;;6.67;;
4317;SDS011;2172;53.576;9.934;2023-04-06T09:51:15;8.07;;;6.27;;
4317;SDS011;2172;53.576;9.934;2023-04-06T09:53:43;7.10;;;6.40;;
4317;SDS011;2172;53.576;9.934;2023-04-06T09:56:12;8.93;;;6.80;;
4317;SDS011;2172;53.576;9.934;2023-04-06T09:58:42;6.23;;;5.60;;
4317;SDS011;2172;53.576;9.934;2023-04-06T10:01:12;6.67;;;5.90;;
4317;SDS011;2172;53.576;9.934;2023-04-06T10:03:43;9.37;;;6.00;;
4317;SDS011;2172;53.576;9.934;2023-04-06T10:06:15;8.73;;;5.60;;
4317;SDS011;2172;53.576;9.934;2023-04-06T10:08:45;7.03;;;6.10;;
4317;SDS011;2172;53.576;9.934;2023-04-06T10:11:16;6.50;;;5.63;;
4317;SDS011;2172;53.576;9.934;2023-04-06T10:13:43;6.20;;;5.53;;
4317;SDS011;2172;53.576;9.934;2023-04-06T10:16:13;7.37;;;6.17;;
4317;SDS011;2172;53.576;9.934;2023-04-06T10:18:41;7.37;;;5.87;;
4317;SDS011;2172;53.576;9.934;2023-04-06T10:21:14;6.53;;;5.57;;
4317;SDS011;2172;53.576;9.934;2023-04-06T10:23:46;8.13;;;6.43;;
4317;SDS011;2172;53.576;9.934;2023-04-06T10:26:19;7.13;;;5.37;;
4317;SDS011;2172;53.576;9.934;2023-04-06T10:28:48;7.93;;;5.70;;
4317;SDS011;2172;53.576;9.934;2023-04-06T10:31:23;6.30;;;5.67;;
4317;SDS011;2172;53.576;9.934;2023-04-06T10:33:56;9.43;;;6.23;;
4317;SDS011;2172;53.576;9.934;2023-04-06T10:36:24;8.87;;;6.33;;
4317;SDS011;2172;53.576;9.934;2023-04-06T10:38:56;8.00;;;5.90;;
4317;SDS011;2172;53.576;9.934;2023-04-06T10:41:31;11.27;;;6.03;;
4317;SDS011;2172;53.576;9.934;2023-04-06T10:44:00;11.20;;;6.30;;
4317;SDS011;2172;53.576;9.934;2023-04-06T10:46:28;7.67;;;6.13;;
4317;SDS011;2172;53.576;9.934;2023-04-06T10:49:09;9.23;;;6.17;;
4317;SDS011;2172;53.576;9.934;2023-04-06T10:51:37;9.53;;;6.90;;
4317;SDS011;2172;53.576;9.934;2023-04-06T10:54:06;8.33;;;7.03;;
4317;SDS011;2172;53.576;9.934;2023-04-06T10:56:36;9.40;;;7.20;;
4317;SDS011;2172;53.576;9.934;2023-04-06T10:59:05;8.13;;;7.33;;
4317;SDS011;2172;53.576;9.934;2023-04-06T11:01:33;7.77;;;6.97;;
4317;SDS011;2172;53.576;9.934;2023-04-06T11:04:02;9.60;;;6.67;;
4317;SDS011;2172;53.576;9.934;2023-04-06T11:06:30;8.20;;;7.40;;
4317;SDS011;2172;53.576;9.934;2023-04-06T11:08:58;8.30;;;7.50;;
4317;SDS011;2172;53.576;9.934;2023-04-06T11:11:26;8.60;;;7.40;;
4317;SDS011;2172;53.576;9.934;2023-04-06T11:13:54;11.83;;;7.43;;
4317;SDS011;2172;53.576;9.934;2023-04-06T11:16:23;9.70;;;8.00;;
4317;SDS011;2172;53.576;9.934;2023-04-06T11:18:53;11.80;;;8.53;;
4317;SDS011;2172;53.576;9.934;2023-04-06T11:21:33;8.80;;;7.90;;
4317;SDS011;2172;53.576;9.934;2023-04-06T11:24:05;11.03;;;8.27;;
4317;SDS011;2172;53.576;9.934;2023-04-06T11:26:38;9.37;;;8.37;;
4317;SDS011;2172;53.576;9.934;2023-04-06T11:29:06;11.77;;;8.77;;
4317;SDS011;2172;53.576;9.934;2023-04-06T11:31:38;9.00;;;8.20;;
4317;SDS011;2172;53.576;9.934;2023-04-06T11:34:12;9.23;;;8.33;;
4317;SDS011;2172;53.576;9.934;2023-04-06T11:36:45;9.77;;;8.77;;
4317;SDS011;2172;53.576;9.934;2023-04-06T11:39:17;12.10;;;8.00;;
4317;SDS011;2172;53.576;9.934;2023-04-06T11:41:47;14.67;;;9.30;;
4317;SDS011;2172;53.576;9.934;2023-04-06T11:44:14;13.87;;;9.83;;
4317;SDS011;2172;53.576;9.934;2023-04-06T11:46:53;11.77;;;8.43;;
4317;SDS011;2172;53.576;9.934;2023-04-06T11:49:20;12.97;;;10.07;;
4317;SDS011;2172;53.576;9.934;2023-04-06T11:51:49;12.20;;;8.70;;
4317;SDS011;2172;53.576;9.934;2023-04-06T11:54:17;8.83;;;8.03;;
4317;SDS011;2172;53.576;9.934;2023-04-06T11:56:46;9.47;;;8.30;;
4317;SDS011;2172;53.576;9.934;2023-04-06T11:59:14;11.90;;;9.53;;
4317;SDS011;2172;53.576;9.934;2023-04-06T12:01:44;10.90;;;9.07;;
4317;SDS011;2172;53.576;9.934;2023-04-06T12:04:12;11.40;;;9.40;;
4317;SDS011;2172;53.576;9.934;2023-04-06T12:06:40;11.37;;;8.20;;
4317;SDS011;2172;53.576;9.934;2023-04-06T12:09:12;9.60;;;8.53;;
4317;SDS011;2172;53.576;9.934;2023-04-06T12:11:42;9.93;;;8.93;;
4317;SDS011;2172;53.576;9.934;2023-04-06T12:14:10;8.93;;;7.47;;
4317;SDS011;2172;53.576;9.934;2023-04-06T12:16:38;10.63;;;8.70;;
4317;SDS011;2172;53.576;9.934;2023-04-06T12:19:06;9.47;;;8.50;;
4317;SDS011;2172;53.576;9.934;2023-04-06T12:21:34;12.37;;;8.80;;
4317;SDS011;2172;53.576;9.934;2023-04-06T12:24:03;10.50;;;8.43;;
4317;SDS011;2172;53.576;9.934;2023-04-06T12:26:32;10.67;;;8.97;;
4317;SDS011;2172;53.576;9.934;2023-04-06T12:29:00;11.10;;;8.63;;
4317;SDS011;2172;53.576;9.934;2023-04-06T12:31:35;11.47;;;8.77;;
4317;SDS011;2172;53.576;9.934;2023-04-06T12:34:03;12.13;;;10.20;;
4317;SDS011;2172;53.576;9.934;2023-04-06T12:36:31;12.13;;;9.90;;
4317;SDS011;2172;53.576;9.934;2023-04-06T12:39:00;10.30;;;8.77;;
4317;SDS011;2172;53.576;9.934;2023-04-06T12:41:28;9.47;;;8.57;;
4317;SDS011;2172;53.576;9.934;2023-04-06T12:43:58;10.83;;;9.37;;
4317;SDS011;2172;53.576;9.934;2023-04-06T12:46:25;10.13;;;9.03;;
4317;SDS011;2172;53.576;9.934;2023-04-06T12:48:55;10.70;;;9.60;;
4317;SDS011;2172;53.576;9.934;2023-04-06T12:51:24;10.40;;;8.70;;
4317;SDS011;2172;53.576;9.934;2023-04-06T12:53:53;13.93;;;9.07;;
4317;SDS011;2172;53.576;9.934;2023-04-06T12:56:21;10.70;;;9.57;;
4317;SDS011;2172;53.576;9.934;2023-04-06T12:58:50;11.67;;;9.60;;
4317;SDS011;2172;53.576;9.934;2023-04-06T13:01:19;10.47;;;9.40;;
4317;SDS011;2172;53.576;9.934;2023-04-06T13:03:47;12.23;;;10.17;;
4317;SDS011;2172;53.576;9.934;2023-04-06T13:06:15;10.87;;;9.77;;
4317;SDS011;2172;53.576;9.934;2023-04-06T13:08:42;9.90;;;8.90;;
4317;SDS011;2172;53.576;9.934;2023-04-06T13:11:12;10.47;;;9.43;;
4317;SDS011;2172;53.576;9.934;2023-04-06T13:13:40;11.20;;;8.93;;
4317;SDS011;2172;53.576;9.934;2023-04-06T13:16:08;13.20;;;9.43;;
4317;SDS011;2172;53.576;9.934;2023-04-06T13:18:37;10.37;;;8.93;;
4317;SDS011;2172;53.576;9.934;2023-04-06T13:21:06;11.20;;;9.77;;
4317;SDS011;2172;53.576;9.934;2023-04-06T13:23:34;11.03;;;9.27;;
4317;SDS011;2172;53.576;9.934;2023-04-06T13:26:03;10.40;;;9.30;;
4317;SDS011;2172;53.576;9.934;2023-04-06T13:28:31;11.00;;;9.50;;
4317;SDS011;2172;53.576;9.934;2023-04-06T13:30:59;12.13;;;10.00;;
4317;SDS011;2172;53.576;9.934;2023-04-06T13:33:28;11.63;;;10.03;;
4317;SDS011;2172;53.576;9.934;2023-04-06T13:35:58;11.30;;;9.20;;
4317;SDS011;2172;53.576;9.934;2023-04-06T13:38:26;11.23;;;10.03;;
4317;SDS011;2172;53.576;9.934;2023-04-06T13:40:54;12.37;;;9.57;;
4317;SDS011;2172;53.576;9.934;2023-04-06T13:43:21;14.53;;;10.70;;
4317;SDS011;2172;53.576;9.934;2023-04-06T13:45:51;12.43;;;9.50;;
4317;SDS011;2172;53.576;9.934;2023-04-06T13:48:20;12.17;;;10.10;;
4317;SDS011;2172;53.576;9.934;2023-04-06T13:50:48;12.90;;;10.40;;
4317;SDS011;2172;53.576;9.934;2023-04-06T13:53:17;10.93;;;9.70;;
4317;SDS011;2172;53.576;9.934;2023-04-06T13:55:51;11.40;;;10.10;;
4317;SDS011;2172;53.576;9.934;2023-04-06T13:58:20;10.60;;;9.50;;
4317;SDS011;2172;53.576;9.934;2023-04-06T14:00:48;10.33;;;9.27;;
4317;SDS011;2172;53.576;9.934;2023-04-06T14:03:16;10.63;;;9.10;;
4317;SDS011;2172;53.576;9.934;2023-04-06T14:05:44;9.80;;;8.87;;
4317;SDS011;2172;53.576;9.934;2023-04-06T14:08:11;10.07;;;8.97;;
4317;SDS011;2172;53.576;9.934;2023-04-06T14:10:41;12.80;;;10.53;;
4317;SDS011;2172;53.576;9.934;2023-04-06T14:13:11;11.27;;;10.20;;
4317;SDS011;2172;53.576;9.934;2023-04-06T14:15:39;10.93;;;9.83;;
4317;SDS011;2172;53.576;9.934;2023-04-06T14:18:07;10.10;;;8.50;;
4317;SDS011;2172;53.576;9.934;2023-04-06T14:20:34;9.40;;;8.37;;
4317;SDS011;2172;53.576;9.934;2023-04-06T14:23:02;9.00;;;7.90;;
4317;SDS011;2172;53.576;9.934;2023-04-06T14:25:30;9.80;;;8.80;;
4317;SDS011;2172;53.576;9.934;2023-04-06T14:28:01;11.47;;;10.27;;
4317;SDS011;2172;53.576;9.934;2023-04-06T14:30:29;12.47;;;10.90;;
4317;SDS011;2172;53.576;9.934;2023-04-06T14:32:57;13.60;;;11.33;;
4317;SDS011;2172;53.576;9.934;2023-04-06T14:35:25;12.33;;;11.13;;
4317;SDS011;2172;53.576;9.934;2023-04-06T14:37:53;12.57;;;9.80;;
4317;SDS011;2172;53.576;9.934;2023-04-06T14:40:22;14.27;;;10.97;;
4317;SDS011;2172;53.576;9.934;2023-04-06T14:42:49;13.23;;;10.17;;
4317;SDS011;2172;53.576;9.934;2023-04-06T14:45:18;11.80;;;10.40;;
4317;SDS011;2172;53.576;9.934;2023-04-06T14:47:47;10.30;;;9.30;;
4317;SDS011;2172;53.576;9.934;2023-04-06T14:50:14;11.50;;;10.40;;
4317;SDS011;2172;53.576;9.934;2023-04-06T14:52:42;11.50;;;10.40;;
4317;SDS011;2172;53.576;9.934;2023-04-06T14:55:11;14.33;;;10.90;;
4317;SDS011;2172;53.576;9.934;2023-04-06T14:57:39;12.87;;;11.57;;
4317;SDS011;2172;53.576;9.934;2023-04-06T15:00:07;16.33;;;10.27;;
4317;SDS011;2172;53.576;9.934;2023-04-06T15:02:37;11.30;;;9.70;;
4317;SDS011;2172;53.576;9.934;2023-04-06T15:05:05;10.60;;;9.60;;
4317;SDS011;2172;53.576;9.934;2023-04-06T15:07:33;11.57;;;10.40;;
4317;SDS011;2172;53.576;9.934;2023-04-06T15:10:01;12.57;;;9.80;;
4317;SDS011;2172;53.576;9.934;2023-04-06T15:12:30;12.00;;;10.37;;
4317;SDS011;2172;53.576;9.934;2023-04-06T15:14:58;12.40;;;11.10;;
4317;SDS011;2172;53.576;9.934;2023-04-06T15:17:26;11.37;;;10.17;;